Franklin, Maine
Current Conditions -  °F | °C
As of 9:15 PM on Monday 22 Dec 2014 (Local Time) from KBHB Reporting Station
Overcast Overcast  
Wind Chill: 34°   Ceiling: 1800
Heat Index: 34°   Visibility: 10mi
Dew Point: 34°   Wind: 3mph
Humidity: 100%   Direction: 50°NE
Pressure: 30.4"   Gusts: NA
Location:  44.59°N, 68.23°W
Report Text: KBHB 230215Z AUTO 05003KT 10SM SCT013 BKN018 OVC050 01/01 A3040 RMK AO1
Loading
Personal Weather Stations






























Interactive Weather Map New forecast layout! Learn more

10-Day Weather Forecast

Advertisements
Track Severe Weather on mobile